createdAt,value
2023-03-25T00:01:34.088Z,7.72
2023-03-25T00:04:04.185Z,7.78
2023-03-25T00:06:36.307Z,7.81
2023-03-25T00:09:04.248Z,7.84
2023-03-25T00:11:31.324Z,7.82
2023-03-25T00:13:58.303Z,7.75
2023-03-25T00:16:25.127Z,7.73
2023-03-25T00:18:51.741Z,7.70
2023-03-25T00:21:19.171Z,7.65
2023-03-25T00:23:46.182Z,7.66
2023-03-25T00:26:14.633Z,7.65
2023-03-25T00:28:41.338Z,7.64
2023-03-25T00:31:12.376Z,7.56
2023-03-25T00:33:41.645Z,7.56
2023-03-25T00:36:09.147Z,7.60
2023-03-25T00:38:39.228Z,7.64
2023-03-25T00:41:27.192Z,7.67
2023-03-25T00:43:58.789Z,7.68
2023-03-25T00:46:27.492Z,7.73
2023-03-25T00:48:56.335Z,7.68
2023-03-25T00:51:23.474Z,7.65
2023-03-25T00:53:55.480Z,7.64
2023-03-25T00:56:30.850Z,7.62
2023-03-25T00:58:58.211Z,7.61
2023-03-25T01:01:27.456Z,7.60
2023-03-25T01:03:59.417Z,7.56
2023-03-25T01:06:36.893Z,7.54
2023-03-25T01:09:08.231Z,7.56
2023-03-25T01:11:37.730Z,7.56
2023-03-25T01:14:07.367Z,7.56
2023-03-25T01:16:38.750Z,7.58
2023-03-25T01:19:05.399Z,7.65
2023-03-25T01:21:35.183Z,7.71
2023-03-25T01:24:01.932Z,7.68
2023-03-25T01:26:28.984Z,7.74
2023-03-25T01:28:55.435Z,7.74
2023-03-25T01:31:24.901Z,7.76
2023-03-25T01:33:51.624Z,7.82
2023-03-25T01:36:18.247Z,7.78
2023-03-25T01:38:47.446Z,7.73
2023-03-25T01:41:13.941Z,7.83
2023-03-25T01:43:40.505Z,7.87
2023-03-25T01:46:15.915Z,7.90
2023-03-25T01:48:44.428Z,7.88
2023-03-25T01:51:16.913Z,7.88
2023-03-25T01:53:47.964Z,7.95
2023-03-25T01:56:19.691Z,7.96
2023-03-25T01:58:47.457Z,8.02
2023-03-25T02:06:51.015Z,8.03
2023-03-25T02:09:21.473Z,8.04
2023-03-25T02:11:48.719Z,8.06
2023-03-25T02:14:23.437Z,8.05
2023-03-25T02:17:31.819Z,8.19
2023-03-25T02:20:18.414Z,8.01
2023-03-25T02:22:59.922Z,7.12
2023-03-25T02:25:37.505Z,6.53
2023-03-25T02:28:29.216Z,6.00
2023-03-25T02:31:27.307Z,5.72
2023-03-25T02:34:09.084Z,5.53
2023-03-25T02:37:02.325Z,5.39
2023-03-25T02:39:47.291Z,5.26
2023-03-25T02:42:19.909Z,5.16
2023-03-25T02:44:56.756Z,5.06
2023-03-25T02:47:28.517Z,4.93
2023-03-25T02:50:00.949Z,4.86
2023-03-25T02:52:32.574Z,4.72
2023-03-25T02:55:05.189Z,4.58
2023-03-25T02:57:38.295Z,4.49
2023-03-25T03:00:15.883Z,4.38
2023-03-25T03:02:53.566Z,4.34
2023-03-25T03:05:33.710Z,4.27
2023-03-25T03:08:41.551Z,4.22
2023-03-25T03:11:20.488Z,4.19
2023-03-25T03:14:08.043Z,4.18
2023-03-25T03:17:06.520Z,4.16
2023-03-25T03:19:39.488Z,4.16
2023-03-25T03:22:34.342Z,4.14
2023-03-25T03:25:34.376Z,4.14
2023-03-25T03:28:16.412Z,4.16
2023-03-25T03:30:49.659Z,4.13
2023-03-25T03:33:47.720Z,4.08
2023-03-25T03:36:22.178Z,4.06
2023-03-25T03:38:59.337Z,4.04
2023-03-25T03:41:32.260Z,4.04
2023-03-25T03:44:03.455Z,4.04
2023-03-25T03:46:37.600Z,4.05
2023-03-25T03:49:09.381Z,4.07
2023-03-25T03:51:40.547Z,4.06
2023-03-25T03:54:16.184Z,4.05
2023-03-25T03:56:55.370Z,4.04
2023-03-25T03:59:49.476Z,4.04
2023-03-25T04:02:34.470Z,3.99
2023-03-25T04:05:01.228Z,3.98
2023-03-25T04:07:40.459Z,3.96
2023-03-25T04:10:16.798Z,3.93
2023-03-25T04:12:51.745Z,3.93
2023-03-25T04:15:19.023Z,3.98
2023-03-25T04:17:48.263Z,4.03
2023-03-25T04:20:25.468Z,4.10
2023-03-25T04:22:52.864Z,4.05
2023-03-25T04:25:21.700Z,4.10
2023-03-25T04:27:53.966Z,4.06
2023-03-25T04:30:21.665Z,4.09
2023-03-25T04:32:48.250Z,4.13
2023-03-25T04:35:17.156Z,4.19
2023-03-25T04:37:45.833Z,4.24
2023-03-25T04:40:18.730Z,4.23
2023-03-25T04:42:46.861Z,4.22
2023-03-25T04:45:16.682Z,4.23
2023-03-25T04:47:47.278Z,4.25
2023-03-25T04:50:28.662Z,4.29
2023-03-25T04:53:00.569Z,4.28
2023-03-25T04:55:30.090Z,4.23
2023-03-25T04:57:56.568Z,4.20
2023-03-25T05:00:25.213Z,4.22
2023-03-25T05:02:54.289Z,4.23
2023-03-25T05:05:24.002Z,4.28
2023-03-25T05:07:55.051Z,4.29
2023-03-25T05:10:26.520Z,4.26
2023-03-25T05:13:00.889Z,4.22
2023-03-25T05:15:28.501Z,4.19
2023-03-25T05:17:57.403Z,4.18
2023-03-25T05:20:24.556Z,4.15
2023-03-25T05:22:53.441Z,4.13
2023-03-25T05:25:23.104Z,4.16
2023-03-25T05:27:56.146Z,4.20
2023-03-25T05:30:22.831Z,4.20
2023-03-25T05:32:56.329Z,4.15
2023-03-25T05:35:25.265Z,4.16
2023-03-25T05:37:52.651Z,4.19
2023-03-25T05:40:23.273Z,4.23
2023-03-25T05:42:50.776Z,4.24
2023-03-25T05:45:17.514Z,4.25
2023-03-25T05:47:44.588Z,4.27
2023-03-25T05:50:11.857Z,4.26
2023-03-25T05:52:44.193Z,4.37
2023-03-25T05:55:14.992Z,4.39
2023-03-25T05:57:41.682Z,4.41
2023-03-25T06:00:09.137Z,4.44
2023-03-25T06:02:38.909Z,4.41
2023-03-25T06:05:06.330Z,4.44
2023-03-25T06:07:32.839Z,4.45
2023-03-25T06:09:59.675Z,4.47
2023-03-25T06:12:27.650Z,4.41
2023-03-25T06:14:56.702Z,4.41
2023-03-25T06:17:24.333Z,4.43
2023-03-25T06:19:52.149Z,4.49
2023-03-25T06:22:22.069Z,4.63
2023-03-25T06:24:52.412Z,4.77
2023-03-25T06:27:19.739Z,4.95
2023-03-25T06:29:47.246Z,5.22
2023-03-25T06:32:14.717Z,5.32
2023-03-25T06:34:42.949Z,5.29
2023-03-25T06:37:10.514Z,5.29
2023-03-25T06:39:38.127Z,5.33
2023-03-25T06:42:05.646Z,5.39
2023-03-25T06:44:33.696Z,5.37
2023-03-25T06:47:04.458Z,5.40
2023-03-25T06:49:31.152Z,5.43
2023-03-25T06:51:58.380Z,5.46
2023-03-25T06:54:24.907Z,5.53
2023-03-25T06:56:51.434Z,5.61
2023-03-25T06:59:18.165Z,5.76
2023-03-25T07:01:46.539Z,5.75
2023-03-25T07:04:13.173Z,5.72
2023-03-25T07:06:39.680Z,5.74
2023-03-25T07:09:08.464Z,5.73
2023-03-25T07:11:35.403Z,5.72
2023-03-25T07:14:01.884Z,5.71
2023-03-25T07:16:30.265Z,5.75
2023-03-25T07:18:57.353Z,5.80
2023-03-25T07:21:23.930Z,5.82
2023-03-25T07:23:51.050Z,5.82
2023-03-25T07:26:18.395Z,5.74
2023-03-25T07:28:45.347Z,5.73
2023-03-25T07:31:13.670Z,5.71
2023-03-25T07:33:40.748Z,5.70
2023-03-25T07:36:16.675Z,5.72
2023-03-25T07:38:45.489Z,5.75
2023-03-25T07:41:14.309Z,5.74
2023-03-25T07:43:41.022Z,5.76
2023-03-25T07:46:07.564Z,5.79
2023-03-25T07:48:34.055Z,5.80
2023-03-25T07:51:09.258Z,5.76
2023-03-25T07:53:39.029Z,5.73
2023-03-25T07:56:07.108Z,5.68
2023-03-25T07:58:35.798Z,5.63
2023-03-25T08:01:02.523Z,5.70
2023-03-25T08:03:29.138Z,5.74
2023-03-25T08:05:56.495Z,5.71
2023-03-25T08:08:23.237Z,5.68
2023-03-25T08:10:51.121Z,5.68
2023-03-25T08:13:19.366Z,5.71
2023-03-25T08:15:46.137Z,5.74
2023-03-25T08:18:14.665Z,5.76
2023-03-25T08:20:41.550Z,5.81
2023-03-25T08:23:12.631Z,5.89
2023-03-25T08:25:43.863Z,6.00
2023-03-25T08:28:10.945Z,6.09
2023-03-25T08:30:40.072Z,6.16
2023-03-25T08:33:07.548Z,6.28
2023-03-25T08:35:35.424Z,6.38
2023-03-25T08:38:05.578Z,6.41
2023-03-25T08:40:38.510Z,6.48
2023-03-25T08:43:07.343Z,6.56
2023-03-25T08:45:35.784Z,6.59
2023-03-25T08:48:04.915Z,6.58
2023-03-25T08:50:31.467Z,6.61
2023-03-25T08:52:58.462Z,6.57
2023-03-25T08:55:25.875Z,6.67
2023-03-25T08:57:52.585Z,6.69
2023-03-25T09:00:24.253Z,6.68
2023-03-25T09:02:51.127Z,6.68
2023-03-25T09:05:18.910Z,6.63
2023-03-25T09:07:48.062Z,6.55
2023-03-25T09:10:16.502Z,6.55
2023-03-25T09:12:44.280Z,6.44
2023-03-25T09:15:12.095Z,6.32
2023-03-25T09:17:40.119Z,6.30
2023-03-25T09:20:11.591Z,6.36
2023-03-25T09:22:39.507Z,6.58
2023-03-25T09:25:09.337Z,6.65
2023-03-25T09:27:36.058Z,6.66
2023-03-25T09:30:04.331Z,6.72
2023-03-25T09:32:31.089Z,6.77
2023-03-25T09:34:57.559Z,6.88
2023-03-25T09:37:24.455Z,6.94
2023-03-25T09:39:51.071Z,6.82
2023-03-25T09:42:36.063Z,6.86
2023-03-25T09:45:29.304Z,6.92
2023-03-25T09:48:05.354Z,6.92
2023-03-25T09:50:35.341Z,6.94
2023-03-25T09:53:31.096Z,6.86
2023-03-25T09:56:02.076Z,6.68
2023-03-25T09:58:42.050Z,6.53
2023-03-25T10:01:35.025Z,6.58
2023-03-25T10:04:38.697Z,6.70
2023-03-25T10:07:28.428Z,6.77
2023-03-25T10:10:24.032Z,6.80
2023-03-25T10:13:36.378Z,6.50
2023-03-25T10:16:20.872Z,6.61
2023-03-25T10:19:10.164Z,7.11
2023-03-25T10:21:49.796Z,7.36
2023-03-25T10:24:31.496Z,8.04
2023-03-25T10:27:14.407Z,8.08
2023-03-25T10:29:54.540Z,7.98
2023-03-25T10:32:29.017Z,8.09
2023-03-25T10:35:07.125Z,7.93
2023-03-25T10:37:39.468Z,7.62
2023-03-25T10:40:29.750Z,7.62
2023-03-25T10:43:23.925Z,7.76
2023-03-25T10:45:58.203Z,7.53
2023-03-25T10:48:28.169Z,7.81
2023-03-25T10:51:06.502Z,8.22
2023-03-25T10:53:33.292Z,8.48
2023-03-25T10:56:05.193Z,8.78
2023-03-25T10:58:34.636Z,9.09
2023-03-25T11:01:12.021Z,9.30
2023-03-25T11:03:42.421Z,9.43
2023-03-25T11:06:22.599Z,10.00
2023-03-25T11:09:00.268Z,9.86
2023-03-25T11:11:33.972Z,10.08
2023-03-25T11:14:01.207Z,10.22
2023-03-25T11:16:33.283Z,10.15
2023-03-25T11:19:04.774Z,10.04
2023-03-25T11:21:38.133Z,9.89
2023-03-25T11:24:06.643Z,9.78
2023-03-25T11:26:43.433Z,9.61
2023-03-25T11:29:18.523Z,9.51
2023-03-25T11:31:56.856Z,9.57
2023-03-25T11:34:25.086Z,9.61
2023-03-25T11:36:56.654Z,9.60
2023-03-25T11:39:24.882Z,9.44
2023-03-25T11:41:56.299Z,9.27
2023-03-25T11:44:35.199Z,9.24
2023-03-25T11:47:05.592Z,9.37
2023-03-25T11:49:37.537Z,9.38
2023-03-25T11:52:12.776Z,9.39
2023-03-25T11:57:39.852Z,9.46
2023-03-25T12:00:25.245Z,9.86
2023-03-25T12:03:21.172Z,10.02
2023-03-25T12:06:21.902Z,10.03
2023-03-25T12:09:00.705Z,9.87
2023-03-25T12:11:28.997Z,9.83
2023-03-25T12:14:11.159Z,9.96
2023-03-25T12:17:02.177Z,10.05
2023-03-25T12:23:41.720Z,10.39
2023-03-25T12:26:21.773Z,10.61
2023-03-25T12:29:10.465Z,10.43
2023-03-25T12:32:04.417Z,10.32
2023-03-25T12:34:47.045Z,10.36
2023-03-25T12:37:31.457Z,10.29
2023-03-25T12:40:19.813Z,10.23
2023-03-25T12:42:55.273Z,10.28
2023-03-25T12:45:51.831Z,10.51
2023-03-25T12:48:21.385Z,10.56
2023-03-25T12:51:27.315Z,10.60
2023-03-25T12:54:23.508Z,10.53
2023-03-25T12:56:56.192Z,10.48
2023-03-25T12:59:37.662Z,10.56
2023-03-25T13:02:25.816Z,10.60
2023-03-25T13:05:14.101Z,10.64
2023-03-25T13:07:48.350Z,10.81
2023-03-25T13:10:24.982Z,10.97
2023-03-25T13:12:54.554Z,10.90
2023-03-25T13:15:27.443Z,11.12
2023-03-25T13:18:21.210Z,11.25
2023-03-25T13:20:57.742Z,11.19
2023-03-25T13:23:29.646Z,11.15
2023-03-25T13:26:18.319Z,11.09
2023-03-25T13:28:48.480Z,11.09
2023-03-25T13:31:22.693Z,10.93
2023-03-25T13:33:58.572Z,10.79
2023-03-25T13:36:31.025Z,10.65
2023-03-25T13:39:01.746Z,10.55
2023-03-25T13:41:35.029Z,10.54
2023-03-25T13:44:11.158Z,10.50
2023-03-25T13:46:48.480Z,10.47
2023-03-25T13:49:33.505Z,10.50
2023-03-25T13:52:00.333Z,10.56
2023-03-25T13:55:03.739Z,10.75
2023-03-25T13:57:30.220Z,10.84
2023-03-25T14:00:25.521Z,11.02
2023-03-25T14:03:10.896Z,11.34
2023-03-25T14:06:20.189Z,11.46
2023-03-25T14:09:00.914Z,11.49
2023-03-25T14:11:44.206Z,11.48
2023-03-25T14:14:15.470Z,11.37
2023-03-25T14:16:50.793Z,11.32
2023-03-25T14:19:25.922Z,11.24
2023-03-25T14:21:53.748Z,11.17
2023-03-25T14:24:28.129Z,11.18
2023-03-25T14:27:01.424Z,11.12
2023-03-25T14:29:41.750Z,11.02
2023-03-25T14:32:19.505Z,10.87
2023-03-25T14:34:52.160Z,10.78
2023-03-25T14:37:27.225Z,10.71
2023-03-25T14:40:00.359Z,10.29
2023-03-25T14:42:44.534Z,9.85
2023-03-25T14:45:32.320Z,9.62
2023-03-25T14:48:03.486Z,8.92
2023-03-25T14:50:35.084Z,8.77
2023-03-25T14:53:07.159Z,8.72
2023-03-25T14:55:44.266Z,8.68
2023-03-25T14:58:29.122Z,8.42
2023-03-25T15:01:10.126Z,8.37
2023-03-25T15:03:41.175Z,8.28
2023-03-25T15:06:10.592Z,8.34
2023-03-25T15:08:40.825Z,8.33
2023-03-25T15:11:17.105Z,8.43
2023-03-25T15:13:58.043Z,8.49
2023-03-25T15:16:54.756Z,8.48
2023-03-25T15:19:21.629Z,8.43
2023-03-25T15:21:59.339Z,8.37
2023-03-25T15:24:27.252Z,8.34
2023-03-25T15:26:58.725Z,8.37
2023-03-25T15:29:36.901Z,8.39
2023-03-25T15:32:21.705Z,8.51
2023-03-25T15:34:53.308Z,8.65
2023-03-25T15:38:17.729Z,8.70
2023-03-25T15:41:31.805Z,8.83
2023-03-25T15:44:18.414Z,8.89
2023-03-25T15:47:03.699Z,8.98
2023-03-25T15:49:42.205Z,9.04
2023-03-25T15:52:13.332Z,9.10
2023-03-25T15:54:52.026Z,9.26
2023-03-25T15:57:28.468Z,9.37
2023-03-25T16:00:17.019Z,9.36
2023-03-25T16:03:01.931Z,9.28
2023-03-25T16:05:36.642Z,9.26
2023-03-25T16:08:16.068Z,9.20
2023-03-25T16:10:46.393Z,9.17
2023-03-25T16:13:26.697Z,9.13
2023-03-25T16:15:57.096Z,9.17
2023-03-25T16:18:24.758Z,9.18
2023-03-25T16:21:02.233Z,9.20
2023-03-25T16:23:30.718Z,9.23
2023-03-25T16:25:57.217Z,9.27
2023-03-25T16:28:29.313Z,9.29
2023-03-25T16:30:56.889Z,9.29
2023-03-25T16:33:32.170Z,9.31
2023-03-25T16:36:01.851Z,9.31
2023-03-25T16:38:30.494Z,9.31
2023-03-25T16:41:02.966Z,9.32
2023-03-25T16:43:30.768Z,9.28
2023-03-25T16:46:00.431Z,9.29
2023-03-25T16:48:38.115Z,9.25
2023-03-25T16:51:16.513Z,9.21
2023-03-25T16:53:55.356Z,9.14
2023-03-25T16:56:27.710Z,9.06
2023-03-25T16:59:16.285Z,9.05
2023-03-25T17:01:50.480Z,9.01
2023-03-25T17:04:19.232Z,8.98
2023-03-25T17:06:54.634Z,8.97
2023-03-25T17:09:27.367Z,8.97
2023-03-25T17:11:57.612Z,8.98
2023-03-25T17:14:39.626Z,8.99
2023-03-25T17:17:24.319Z,8.97
2023-03-25T17:19:55.453Z,8.98
2023-03-25T17:22:32.351Z,8.97
2023-03-25T17:25:24.297Z,8.94
2023-03-25T17:27:55.179Z,8.91
2023-03-25T17:30:44.872Z,8.89
2023-03-25T17:33:18.025Z,8.85
2023-03-25T17:35:50.618Z,8.81
2023-03-25T17:38:25.473Z,8.76
2023-03-25T17:41:07.168Z,8.68
2023-03-25T17:43:41.354Z,8.62
2023-03-25T17:46:10.512Z,8.55
2023-03-25T17:48:37.309Z,8.50
2023-03-25T17:51:04.154Z,8.45
2023-03-25T17:53:32.704Z,8.38
2023-03-25T17:56:03.162Z,8.32
2023-03-25T17:58:30.202Z,8.25
2023-03-25T18:01:03.349Z,8.32
2023-03-25T18:03:32.345Z,8.50
2023-03-25T18:06:00.850Z,8.67
2023-03-25T18:08:28.309Z,8.72
2023-03-25T18:10:56.275Z,8.83
2023-03-25T18:13:27.337Z,8.75
2023-03-25T18:15:55.341Z,8.70
2023-03-25T18:18:24.937Z,8.68
2023-03-25T18:20:52.765Z,8.63
2023-03-25T18:23:21.247Z,8.64
2023-03-25T18:25:48.075Z,8.66
2023-03-25T18:28:15.450Z,8.60
2023-03-25T18:31:01.198Z,8.55
2023-03-25T18:33:28.666Z,8.65
2023-03-25T18:35:59.375Z,8.67
2023-03-25T18:38:29.402Z,8.56
2023-03-25T18:40:57.141Z,8.53
2023-03-25T18:43:24.076Z,8.47
2023-03-25T18:45:50.702Z,8.44
2023-03-25T18:48:21.191Z,8.42
2023-03-25T18:51:05.188Z,8.48
2023-03-25T18:56:23.748Z,8.37
2023-03-25T18:58:50.281Z,8.39
2023-03-25T19:01:18.695Z,8.37
2023-03-25T19:03:46.624Z,8.35
2023-03-25T19:06:18.030Z,8.33
2023-03-25T19:08:47.239Z,8.29
2023-03-25T19:11:21.862Z,8.25
2023-03-25T19:13:55.039Z,8.21
2023-03-25T19:16:21.948Z,8.22
2023-03-25T19:18:48.991Z,8.24
2023-03-25T19:21:19.665Z,8.24
2023-03-25T19:23:47.474Z,8.29
2023-03-25T19:26:14.594Z,8.32
2023-03-25T19:28:41.224Z,8.32
2023-03-25T19:31:09.682Z,8.44
2023-03-25T19:33:36.279Z,8.48
2023-03-25T19:36:04.314Z,8.47
2023-03-25T19:38:33.027Z,8.46
2023-03-25T19:41:08.457Z,8.42
2023-03-25T19:43:35.916Z,8.50
2023-03-25T19:46:03.500Z,8.51
2023-03-25T19:48:30.075Z,8.51
2023-03-25T19:50:57.446Z,8.48
2023-03-25T19:53:25.786Z,8.47
2023-03-25T19:55:54.909Z,8.45
2023-03-25T19:58:24.680Z,8.47
2023-03-25T20:00:51.827Z,8.47
2023-03-25T20:03:22.677Z,8.48
2023-03-25T20:05:57.405Z,8.53
2023-03-25T20:08:26.327Z,8.59
2023-03-25T20:10:53.224Z,8.65
2023-03-25T20:13:24.052Z,8.71
2023-03-25T20:15:54.285Z,8.73
2023-03-25T20:18:21.217Z,8.71
2023-03-25T20:20:54.481Z,8.71
2023-03-25T20:23:21.297Z,8.71
2023-03-25T20:25:50.578Z,8.74
2023-03-25T20:28:18.587Z,8.79
2023-03-25T20:30:45.971Z,8.83
2023-03-25T20:33:12.556Z,8.86
2023-03-25T20:35:41.479Z,8.87
2023-03-25T20:38:08.525Z,8.89
2023-03-25T20:40:43.933Z,8.88
2023-03-25T20:43:15.411Z,8.86
2023-03-25T20:45:43.349Z,8.84
2023-03-25T20:48:10.361Z,8.81
2023-03-25T20:50:36.995Z,8.78
2023-03-25T20:53:04.513Z,8.77
2023-03-25T20:55:31.355Z,8.73
2023-03-25T20:57:59.594Z,8.76
2023-03-25T21:00:26.796Z,8.77
2023-03-25T21:02:54.335Z,8.74
2023-03-25T21:05:21.045Z,8.75
2023-03-25T21:07:48.331Z,8.75
2023-03-25T21:10:14.864Z,8.78
2023-03-25T21:12:49.244Z,8.82
2023-03-25T21:15:15.779Z,8.83
2023-03-25T21:17:43.116Z,8.82
2023-03-25T21:20:14.704Z,8.83
2023-03-25T21:22:43.430Z,8.83
2023-03-25T21:25:14.787Z,8.87
2023-03-25T21:27:42.597Z,8.86
2023-03-25T21:30:10.072Z,8.88
2023-03-25T21:32:41.005Z,8.88
2023-03-25T21:35:09.430Z,8.85
2023-03-25T21:37:39.109Z,8.78
2023-03-25T21:40:10.163Z,8.73
2023-03-25T21:42:41.520Z,8.71
2023-03-25T21:45:10.979Z,8.69
2023-03-25T21:47:37.810Z,8.68
2023-03-25T21:50:10.118Z,8.63
2023-03-25T21:52:43.456Z,8.58
2023-03-25T21:55:12.842Z,8.55
2023-03-25T21:57:40.075Z,8.52
2023-03-25T22:00:08.198Z,8.46
2023-03-25T22:02:37.237Z,8.43
2023-03-25T22:05:04.012Z,8.42
2023-03-25T22:07:31.014Z,8.40
2023-03-25T22:09:59.512Z,8.37
2023-03-25T22:12:26.143Z,8.36
2023-03-25T22:14:52.883Z,8.33
2023-03-25T22:17:21.264Z,8.30
2023-03-25T22:19:48.872Z,8.31
2023-03-25T22:22:19.221Z,8.29
2023-03-25T22:24:46.544Z,8.28
2023-03-25T22:27:13.301Z,8.25
2023-03-25T22:29:42.019Z,8.18
2023-03-25T22:32:09.103Z,8.16
2023-03-25T22:34:36.415Z,8.11
2023-03-25T22:37:03.679Z,8.04
2023-03-25T22:39:32.298Z,8.05
2023-03-25T22:41:58.854Z,8.04
2023-03-25T22:44:25.383Z,8.06
2023-03-25T22:46:52.472Z,8.05
2023-03-25T22:49:19.850Z,8.04
2023-03-25T22:51:49.847Z,8.07
2023-03-25T22:54:16.718Z,8.07
2023-03-25T22:56:43.775Z,8.12
2023-03-25T22:59:12.270Z,8.19
2023-03-25T23:01:41.343Z,8.20
2023-03-25T23:04:10.651Z,8.20
2023-03-25T23:06:37.415Z,8.21
2023-03-25T23:09:10.453Z,8.19
2023-03-25T23:11:37.910Z,8.19
2023-03-25T23:14:10.576Z,8.19
2023-03-25T23:16:40.315Z,8.19
2023-03-25T23:19:09.372Z,8.17
2023-03-25T23:21:38.470Z,8.16
2023-03-25T23:24:05.530Z,8.17
2023-03-25T23:26:36.576Z,8.17
2023-03-25T23:29:06.092Z,8.19
2023-03-25T23:31:37.341Z,8.20
2023-03-25T23:34:07.187Z,8.21
2023-03-25T23:36:36.406Z,8.25
2023-03-25T23:39:06.524Z,8.33
2023-03-25T23:41:33.692Z,8.33
2023-03-25T23:44:00.245Z,8.30
2023-03-25T23:46:33.836Z,8.33
2023-03-25T23:49:03.598Z,8.36
2023-03-25T23:51:33.247Z,8.36
2023-03-25T23:54:02.351Z,8.38
2023-03-25T23:56:29.241Z,8.39
2023-03-25T23:58:56.208Z,8.41
